旭川 の空港の天気 - METARとTAF

旭川空港 ( RJEC / AKJ ) - 北海道旭川市
飛行場実況気象(Metar)
観測時間11/23 20:00 JST (11/23 11:00 UTC)
風向・風速北北西 2m/s
視程10km以上
天気現象弱いしゅう雪
少しの雲 雲底高度 300m
全天の4割程度の雲 雲底高度 610m
全天の8割程度の雲 雲底高度 910m
気温0℃
湿度93%
気圧1003hPa
METARRJEC 231100Z 34004KT 9999 -SHSN FEW010 SCT020 BKN030 00/M01 Q1003
過去の天気等 Google飛行場航空写真 Wunderground天気予報

過去48時間のMETAR

飛行場予報(TAF)
発表時間: 11/23 20:08 JST (11/23 11:08 UTC)
予報対象時間: 23日21時 JST ~ 25日3時 JST
風向・風速西 3m/s
視程10km以上
少しの雲 雲底高度 240m
全天の8割程度の雲 雲底高度 460m
23日21時 JST ~ 24日3時 JST に一時的に
視程1,500m
天気現象弱いしゅう雪
少しの雲 雲底高度 150m
全天の8割程度の雲 雲底高度 240m
24日9時 JST ~ 24日12時 JST に一時的に
視程2,000m
天気現象弱いしゅう雪
24日12時 JST ~ 24日18時 JST に一時的に
視程700m
天気現象しゅう雪
全天を覆う雲 鉛直視程 150m
24日18時 JST ~ 25日3時 JST に一時的に
視程2,000m
天気現象弱いしゅう雪
TAF RJEC 231108Z 2312/2418 27005KT 9999 FEW008 BKN015
TEMPO 2312/2318 1500 -SHSN FEW005 BKN008
TEMPO 2400/2403 2000 -SHSN
TEMPO 2403/2409 0700 SHSN VV005
TEMPO 2409/2418 2000 -SHSN
日本の空港のMETAR・TAFへのリンク

RJTT 東京国際空港
RJAA 新東京国際空港
RJBB 関西国際空港
RJOO 大阪空港
RJGG 中部国際空港
RJCC 新千歳空港
RJFF 福岡空港
ROAH 那覇空港


RJEC 旭川空港
RJCH 函館空港
RJCK 釧路空港
RJCM 女満別空港
RJCB 帯広空港
RJSA 青森空港
RJSS 仙台空港
RJSK 秋田空港
RJSF 福島空港
RJAH 茨城空港
RJSN 新潟空港
RJNT 富山空港
RJNK 小松飛行場
RJNS 静岡空港
RJOH 美保飛行場
RJOC 出雲空港
RJOB 岡山空港
RJOA 広島空港
RJOI 岩国飛行場
RJOT 高松空港
RJOM 松山空港
RJOK 高知空港
RJFR 北九州空港
RJFT 熊本空港
RJFU 長崎空港
RJFS 佐賀空港
RJFO 大分空港
RJFM 宮崎空港
RJFK 鹿児島空港
ROIG 石垣島空港
RJTY 横田飛行場
ROTM 普天間飛行場
RODN 嘉手納飛行場